Hauptseite
METAR-TAF:

METAR-TAF

Flughäfen :

M'banza Kongo, Angola

Breite: 6-16-15S, Länge: 14-14-50E, Höhe: 567 m

METAR: fehlend

Zeit: 06:31 (05:31 UTC)

Prognose

Neuester Wetterbericht von vor 6 Stunden und 31 Minuten, um 23:00 UTC
Gültige Prognose vom 25 um 00 UTC bis 25 um 12 UTC
Wind 3 kt aus unterschiedlichen Richtungen
Sichtweite 10 km oder mehr
Leicht bewölkt in der Höhe von 2200 ft
Zeitweise
vom 25 um 03 UTC bis 25 um 08 UTC
Sichtweite: 5000 m
feuchter Dunst
Übergehend zu
vom 25 um 09 UTC bis 25 um 12 UTC
Wind 6 kt aus Südwest
Aufgelockert bewölkt in der Höhe von 1800 ft

TAF: FNBC 242300Z 2500/2512 VRB03KT 9999 FEW022 TEMPO 2503/2508 5000 BR BECMG 2509/2512 22006KT SCT018

Wetterbeobachtungen und Prognosen von mehr als 4000 Flughäfen (METAR und TAF Bericht).

Die verfügbaren Stationen werden durch gelbe und rote Markierungen auf der Karte dargestellt.

Führen Sie die Maus auf sie, um den Namen der Station zu sehen.

Darauf klicken, um die Beobachtung von Wetterbeobachtungen und Prognosen zu sehen.

Um die Karte zu ändern : klicken Sie auf den grünen Tasten mit einem schwarzen Kreuz Zum Vergrößern, auf den grünen Button mit einem Gedankenstrich zu verkleinern, oder auf die grünen Pfeile für benachbarte Karten.


METAR-TAF: